sensor_id;sensor_type;location;lat;lon;timestamp;P1;durP1;ratioP1;P2;durP2;ratioP2
78563;SDS011;67856;47.754;19.088;2023-03-11T00:02:50;3.20;;;1.60;;
78563;SDS011;67856;47.754;19.088;2023-03-11T00:05:54;3.45;;;1.35;;
78563;SDS011;67856;47.754;19.088;2023-03-11T00:08:56;2.80;;;1.50;;
78563;SDS011;67856;47.754;19.088;2023-03-11T00:11:59;3.63;;;1.40;;
78563;SDS011;67856;47.754;19.088;2023-03-11T00:15:02;2.37;;;1.20;;
78563;SDS011;67856;47.754;19.088;2023-03-11T00:18:05;2.65;;;1.20;;
78563;SDS011;67856;47.754;19.088;2023-03-11T00:21:13;2.22;;;1.30;;
78563;SDS011;67856;47.754;19.088;2023-03-11T00:24:17;2.80;;;1.20;;
78563;SDS011;67856;47.754;19.088;2023-03-11T00:27:20;2.63;;;1.23;;
78563;SDS011;67856;47.754;19.088;2023-03-11T00:30:22;3.63;;;1.57;;
78563;SDS011;67856;47.754;19.088;2023-03-11T00:33:26;4.72;;;1.42;;
78563;SDS011;67856;47.754;19.088;2023-03-11T00:36:30;3.88;;;1.27;;
78563;SDS011;67856;47.754;19.088;2023-03-11T00:39:34;2.10;;;1.27;;
78563;SDS011;67856;47.754;19.088;2023-03-11T00:42:39;3.03;;;1.33;;
78563;SDS011;67856;47.754;19.088;2023-03-11T00:45:41;4.93;;;1.20;;
78563;SDS011;67856;47.754;19.088;2023-03-11T00:48:44;3.03;;;1.50;;
78563;SDS011;67856;47.754;19.088;2023-03-11T00:51:46;4.97;;;1.45;;
78563;SDS011;67856;47.754;19.088;2023-03-11T00:54:49;3.60;;;1.40;;
78563;SDS011;67856;47.754;19.088;2023-03-11T00:57:52;3.07;;;1.50;;
78563;SDS011;67856;47.754;19.088;2023-03-11T01:00:56;2.47;;;1.00;;
78563;SDS011;67856;47.754;19.088;2023-03-11T01:03:59;3.42;;;1.30;;
78563;SDS011;67856;47.754;19.088;2023-03-11T01:07:01;2.47;;;1.25;;
78563;SDS011;67856;47.754;19.088;2023-03-11T01:10:05;4.40;;;1.50;;
78563;SDS011;67856;47.754;19.088;2023-03-11T01:13:09;2.40;;;1.30;;
78563;SDS011;67856;47.754;19.088;2023-03-11T01:16:12;2.67;;;1.10;;
78563;SDS011;67856;47.754;19.088;2023-03-11T01:19:14;3.65;;;1.20;;
78563;SDS011;67856;47.754;19.088;2023-03-11T01:22:17;2.33;;;1.40;;
78563;SDS011;67856;47.754;19.088;2023-03-11T01:25:19;2.45;;;1.48;;
78563;SDS011;67856;47.754;19.088;2023-03-11T01:28:24;1.97;;;1.00;;
78563;SDS011;67856;47.754;19.088;2023-03-11T01:31:27;2.80;;;1.40;;
78563;SDS011;67856;47.754;19.088;2023-03-11T01:34:29;2.42;;;1.15;;
78563;SDS011;67856;47.754;19.088;2023-03-11T01:37:32;3.47;;;1.17;;
78563;SDS011;67856;47.754;19.088;2023-03-11T01:40:36;1.88;;;0.90;;
78563;SDS011;67856;47.754;19.088;2023-03-11T01:50:08;2.53;;;1.23;;
78563;SDS011;67856;47.754;19.088;2023-03-11T01:53:13;2.08;;;1.10;;
78563;SDS011;67856;47.754;19.088;2023-03-11T01:56:16;2.42;;;1.35;;
78563;SDS011;67856;47.754;19.088;2023-03-11T01:59:21;2.30;;;1.10;;
78563;SDS011;67856;47.754;19.088;2023-03-11T02:02:35;5.10;;;1.60;;
78563;SDS011;67856;47.754;19.088;2023-03-11T02:05:41;2.55;;;1.20;;
78563;SDS011;67856;47.754;19.088;2023-03-11T02:08:44;1.95;;;1.23;;
78563;SDS011;67856;47.754;19.088;2023-03-11T02:11:49;2.35;;;1.05;;
78563;SDS011;67856;47.754;19.088;2023-03-11T02:14:52;2.23;;;1.17;;
78563;SDS011;67856;47.754;19.088;2023-03-11T02:17:55;2.20;;;1.10;;
78563;SDS011;67856;47.754;19.088;2023-03-11T02:24:38;2.17;;;1.05;;
78563;SDS011;67856;47.754;19.088;2023-03-11T02:27:48;2.08;;;1.00;;
78563;SDS011;67856;47.754;19.088;2023-03-11T02:30:53;2.20;;;1.23;;
78563;SDS011;67856;47.754;19.088;2023-03-11T02:33:57;1.87;;;0.93;;
78563;SDS011;67856;47.754;19.088;2023-03-11T02:37:08;1.88;;;1.05;;
78563;SDS011;67856;47.754;19.088;2023-03-11T02:43:30;1.80;;;0.90;;
78563;SDS011;67856;47.754;19.088;2023-03-11T02:46:36;2.17;;;1.00;;
78563;SDS011;67856;47.754;19.088;2023-03-11T02:49:40;1.30;;;0.83;;
78563;SDS011;67856;47.754;19.088;2023-03-11T02:52:42;1.83;;;0.85;;
78563;SDS011;67856;47.754;19.088;2023-03-11T02:55:45;1.65;;;1.00;;
78563;SDS011;67856;47.754;19.088;2023-03-11T02:58:47;2.00;;;0.95;;
78563;SDS011;67856;47.754;19.088;2023-03-11T03:01:50;3.03;;;1.13;;
78563;SDS011;67856;47.754;19.088;2023-03-11T03:04:53;2.33;;;1.40;;
78563;SDS011;67856;47.754;19.088;2023-03-11T03:07:56;1.55;;;1.15;;
78563;SDS011;67856;47.754;19.088;2023-03-11T03:10:58;2.15;;;0.98;;
78563;SDS011;67856;47.754;19.088;2023-03-11T03:14:01;1.75;;;0.95;;
78563;SDS011;67856;47.754;19.088;2023-03-11T03:17:03;1.97;;;1.10;;
78563;SDS011;67856;47.754;19.088;2023-03-11T03:20:06;2.70;;;1.00;;
78563;SDS011;67856;47.754;19.088;2023-03-11T03:23:15;3.25;;;1.20;;
78563;SDS011;67856;47.754;19.088;2023-03-11T03:26:17;1.55;;;1.00;;
78563;SDS011;67856;47.754;19.088;2023-03-11T03:29:22;3.60;;;1.17;;
78563;SDS011;67856;47.754;19.088;2023-03-11T03:32:25;2.57;;;1.10;;
78563;SDS011;67856;47.754;19.088;2023-03-11T03:35:29;1.83;;;1.03;;
78563;SDS011;67856;47.754;19.088;2023-03-11T03:38:39;1.40;;;1.10;;
78563;SDS011;67856;47.754;19.088;2023-03-11T03:41:41;3.33;;;0.93;;
78563;SDS011;67856;47.754;19.088;2023-03-11T03:44:44;3.40;;;1.20;;
78563;SDS011;67856;47.754;19.088;2023-03-11T03:47:47;1.40;;;0.80;;
78563;SDS011;67856;47.754;19.088;2023-03-11T03:51:05;1.67;;;0.90;;
78563;SDS011;67856;47.754;19.088;2023-03-11T03:54:10;3.47;;;1.10;;
78563;SDS011;67856;47.754;19.088;2023-03-11T03:57:12;1.80;;;0.93;;
78563;SDS011;67856;47.754;19.088;2023-03-11T04:00:19;1.98;;;1.08;;
78563;SDS011;67856;47.754;19.088;2023-03-11T04:03:28;2.13;;;0.90;;
78563;SDS011;67856;47.754;19.088;2023-03-11T04:06:38;1.27;;;0.77;;
78563;SDS011;67856;47.754;19.088;2023-03-11T04:09:42;2.70;;;0.90;;
78563;SDS011;67856;47.754;19.088;2023-03-11T04:12:46;3.10;;;0.77;;
78563;SDS011;67856;47.754;19.088;2023-03-11T04:15:48;4.43;;;1.08;;
78563;SDS011;67856;47.754;19.088;2023-03-11T04:18:51;2.27;;;0.80;;
78563;SDS011;67856;47.754;19.088;2023-03-11T04:21:55;1.30;;;0.70;;
78563;SDS011;67856;47.754;19.088;2023-03-11T04:24:59;11.00;;;1.02;;
78563;SDS011;67856;47.754;19.088;2023-03-11T04:28:01;2.83;;;0.93;;
78563;SDS011;67856;47.754;19.088;2023-03-11T04:31:05;2.33;;;0.80;;
78563;SDS011;67856;47.754;19.088;2023-03-11T04:34:12;1.37;;;0.90;;
78563;SDS011;67856;47.754;19.088;2023-03-11T04:37:15;3.63;;;0.97;;
78563;SDS011;67856;47.754;19.088;2023-03-11T04:40:18;1.35;;;0.85;;
78563;SDS011;67856;47.754;19.088;2023-03-11T04:43:21;1.67;;;0.65;;
78563;SDS011;67856;47.754;19.088;2023-03-11T04:46:23;1.65;;;0.90;;
78563;SDS011;67856;47.754;19.088;2023-03-11T04:49:26;1.40;;;0.90;;
78563;SDS011;67856;47.754;19.088;2023-03-11T04:52:32;1.77;;;0.83;;
78563;SDS011;67856;47.754;19.088;2023-03-11T04:55:35;1.67;;;0.80;;
78563;SDS011;67856;47.754;19.088;2023-03-11T04:58:38;3.92;;;0.80;;
78563;SDS011;67856;47.754;19.088;2023-03-11T05:01:45;1.98;;;0.90;;
78563;SDS011;67856;47.754;19.088;2023-03-11T05:04:48;1.30;;;0.70;;
78563;SDS011;67856;47.754;19.088;2023-03-11T05:07:50;1.63;;;1.00;;
78563;SDS011;67856;47.754;19.088;2023-03-11T05:10:53;1.60;;;1.00;;
78563;SDS011;67856;47.754;19.088;2023-03-11T05:13:57;2.03;;;0.93;;
78563;SDS011;67856;47.754;19.088;2023-03-11T05:16:59;2.33;;;0.90;;
78563;SDS011;67856;47.754;19.088;2023-03-11T05:20:03;1.67;;;0.80;;
78563;SDS011;67856;47.754;19.088;2023-03-11T05:23:09;1.30;;;0.93;;
78563;SDS011;67856;47.754;19.088;2023-03-11T05:26:13;3.13;;;0.88;;
78563;SDS011;67856;47.754;19.088;2023-03-11T05:29:17;2.47;;;0.80;;
78563;SDS011;67856;47.754;19.088;2023-03-11T05:32:21;1.75;;;0.90;;
78563;SDS011;67856;47.754;19.088;2023-03-11T05:35:24;2.23;;;0.90;;
78563;SDS011;67856;47.754;19.088;2023-03-11T05:38:27;2.53;;;1.10;;
78563;SDS011;67856;47.754;19.088;2023-03-11T05:41:29;1.23;;;0.70;;
78563;SDS011;67856;47.754;19.088;2023-03-11T05:44:32;1.60;;;0.93;;
78563;SDS011;67856;47.754;19.088;2023-03-11T05:47:35;2.95;;;0.70;;
78563;SDS011;67856;47.754;19.088;2023-03-11T05:50:39;1.80;;;0.80;;
78563;SDS011;67856;47.754;19.088;2023-03-11T05:53:42;1.77;;;0.90;;
78563;SDS011;67856;47.754;19.088;2023-03-11T05:56:54;1.85;;;0.90;;
78563;SDS011;67856;47.754;19.088;2023-03-11T05:59:58;1.75;;;0.80;;
78563;SDS011;67856;47.754;19.088;2023-03-11T06:03:00;1.73;;;0.90;;
78563;SDS011;67856;47.754;19.088;2023-03-11T06:06:03;1.20;;;0.70;;
78563;SDS011;67856;47.754;19.088;2023-03-11T06:09:09;1.10;;;0.80;;
78563;SDS011;67856;47.754;19.088;2023-03-11T06:12:13;2.65;;;0.70;;
78563;SDS011;67856;47.754;19.088;2023-03-11T06:15:38;2.15;;;0.80;;
78563;SDS011;67856;47.754;19.088;2023-03-11T06:18:41;0.95;;;0.60;;
78563;SDS011;67856;47.754;19.088;2023-03-11T06:21:44;1.40;;;0.60;;
78563;SDS011;67856;47.754;19.088;2023-03-11T06:24:46;1.70;;;0.70;;
78563;SDS011;67856;47.754;19.088;2023-03-11T06:27:49;1.20;;;0.80;;
78563;SDS011;67856;47.754;19.088;2023-03-11T06:30:54;1.20;;;0.60;;
78563;SDS011;67856;47.754;19.088;2023-03-11T06:33:58;1.20;;;0.70;;
78563;SDS011;67856;47.754;19.088;2023-03-11T06:37:01;0.73;;;0.50;;
78563;SDS011;67856;47.754;19.088;2023-03-11T06:40:04;1.53;;;0.80;;
78563;SDS011;67856;47.754;19.088;2023-03-11T06:43:09;1.20;;;0.88;;
78563;SDS011;67856;47.754;19.088;2023-03-11T06:46:15;2.30;;;1.10;;
78563;SDS011;67856;47.754;19.088;2023-03-11T06:49:22;1.42;;;0.93;;
78563;SDS011;67856;47.754;19.088;2023-03-11T06:52:24;1.20;;;0.80;;
78563;SDS011;67856;47.754;19.088;2023-03-11T06:55:29;1.30;;;0.70;;
78563;SDS011;67856;47.754;19.088;2023-03-11T06:58:34;1.35;;;0.80;;
78563;SDS011;67856;47.754;19.088;2023-03-11T07:01:38;1.58;;;0.90;;
78563;SDS011;67856;47.754;19.088;2023-03-11T07:04:41;1.50;;;0.80;;
78563;SDS011;67856;47.754;19.088;2023-03-11T07:07:44;1.27;;;0.97;;
78563;SDS011;67856;47.754;19.088;2023-03-11T07:10:57;1.70;;;0.90;;
78563;SDS011;67856;47.754;19.088;2023-03-11T07:14:05;1.25;;;0.80;;
78563;SDS011;67856;47.754;19.088;2023-03-11T07:17:10;1.30;;;0.70;;
78563;SDS011;67856;47.754;19.088;2023-03-11T07:20:21;1.67;;;0.90;;
78563;SDS011;67856;47.754;19.088;2023-03-11T07:23:24;2.20;;;0.90;;
78563;SDS011;67856;47.754;19.088;2023-03-11T07:26:27;2.10;;;0.80;;
78563;SDS011;67856;47.754;19.088;2023-03-11T07:29:31;2.35;;;0.90;;
78563;SDS011;67856;47.754;19.088;2023-03-11T07:32:33;1.30;;;0.80;;
78563;SDS011;67856;47.754;19.088;2023-03-11T07:35:35;0.88;;;0.70;;
78563;SDS011;67856;47.754;19.088;2023-03-11T07:38:38;1.50;;;0.80;;
78563;SDS011;67856;47.754;19.088;2023-03-11T07:41:43;1.40;;;0.80;;
78563;SDS011;67856;47.754;19.088;2023-03-11T07:44:45;1.33;;;0.80;;
78563;SDS011;67856;47.754;19.088;2023-03-11T07:47:52;1.25;;;0.70;;
78563;SDS011;67856;47.754;19.088;2023-03-11T07:51:04;1.00;;;0.60;;
78563;SDS011;67856;47.754;19.088;2023-03-11T07:54:08;1.23;;;0.77;;
78563;SDS011;67856;47.754;19.088;2023-03-11T07:57:12;1.23;;;0.70;;
78563;SDS011;67856;47.754;19.088;2023-03-11T08:00:18;1.13;;;0.80;;
78563;SDS011;67856;47.754;19.088;2023-03-11T08:03:20;0.90;;;0.60;;
78563;SDS011;67856;47.754;19.088;2023-03-11T08:06:25;1.40;;;0.70;;
78563;SDS011;67856;47.754;19.088;2023-03-11T08:09:30;1.43;;;0.80;;
78563;SDS011;67856;47.754;19.088;2023-03-11T08:12:32;1.67;;;0.83;;
78563;SDS011;67856;47.754;19.088;2023-03-11T08:15:35;1.33;;;0.70;;
78563;SDS011;67856;47.754;19.088;2023-03-11T08:18:38;1.00;;;0.60;;
78563;SDS011;67856;47.754;19.088;2023-03-11T08:21:40;1.27;;;0.75;;
78563;SDS011;67856;47.754;19.088;2023-03-11T08:24:43;1.00;;;0.50;;
78563;SDS011;67856;47.754;19.088;2023-03-11T08:27:45;1.20;;;0.70;;
78563;SDS011;67856;47.754;19.088;2023-03-11T08:30:47;1.30;;;0.80;;
78563;SDS011;67856;47.754;19.088;2023-03-11T08:33:51;1.90;;;0.63;;
78563;SDS011;67856;47.754;19.088;2023-03-11T08:36:55;1.00;;;0.70;;
78563;SDS011;67856;47.754;19.088;2023-03-11T08:39:57;1.70;;;0.87;;
78563;SDS011;67856;47.754;19.088;2023-03-11T08:42:59;0.93;;;0.60;;
78563;SDS011;67856;47.754;19.088;2023-03-11T08:46:02;1.45;;;0.75;;
78563;SDS011;67856;47.754;19.088;2023-03-11T08:49:07;1.33;;;0.60;;
78563;SDS011;67856;47.754;19.088;2023-03-11T08:52:10;1.27;;;0.75;;
78563;SDS011;67856;47.754;19.088;2023-03-11T08:55:13;1.57;;;0.50;;
78563;SDS011;67856;47.754;19.088;2023-03-11T08:58:18;1.10;;;0.60;;
78563;SDS011;67856;47.754;19.088;2023-03-11T09:01:21;0.93;;;0.60;;
78563;SDS011;67856;47.754;19.088;2023-03-11T09:04:24;0.90;;;0.60;;
78563;SDS011;67856;47.754;19.088;2023-03-11T09:07:27;1.15;;;0.40;;
78563;SDS011;67856;47.754;19.088;2023-03-11T09:10:29;1.03;;;0.80;;
78563;SDS011;67856;47.754;19.088;2023-03-11T09:13:31;0.80;;;0.53;;
78563;SDS011;67856;47.754;19.088;2023-03-11T09:16:34;1.02;;;0.60;;
78563;SDS011;67856;47.754;19.088;2023-03-11T09:19:36;1.85;;;0.70;;
78563;SDS011;67856;47.754;19.088;2023-03-11T09:22:39;2.10;;;1.08;;
78563;SDS011;67856;47.754;19.088;2023-03-11T09:25:41;1.23;;;0.70;;
78563;SDS011;67856;47.754;19.088;2023-03-11T09:28:44;0.93;;;0.70;;
78563;SDS011;67856;47.754;19.088;2023-03-11T09:31:50;0.75;;;0.60;;
78563;SDS011;67856;47.754;19.088;2023-03-11T09:34:52;1.13;;;0.60;;
78563;SDS011;67856;47.754;19.088;2023-03-11T09:37:55;1.25;;;0.57;;
78563;SDS011;67856;47.754;19.088;2023-03-11T09:47:24;1.25;;;0.50;;
78563;SDS011;67856;47.754;19.088;2023-03-11T09:53:53;1.75;;;0.60;;
78563;SDS011;67856;47.754;19.088;2023-03-11T09:56:58;1.77;;;0.60;;
78563;SDS011;67856;47.754;19.088;2023-03-11T10:00:03;1.10;;;0.77;;
78563;SDS011;67856;47.754;19.088;2023-03-11T10:03:16;1.05;;;0.60;;
78563;SDS011;67856;47.754;19.088;2023-03-11T10:06:29;1.95;;;0.82;;
78563;SDS011;67856;47.754;19.088;2023-03-11T10:09:34;1.13;;;0.68;;
78563;SDS011;67856;47.754;19.088;2023-03-11T10:12:49;1.67;;;0.60;;
78563;SDS011;67856;47.754;19.088;2023-03-11T10:16:09;0.90;;;0.70;;
78563;SDS011;67856;47.754;19.088;2023-03-11T10:29:19;1.00;;;0.70;;
78563;SDS011;67856;47.754;19.088;2023-03-11T10:32:25;1.03;;;0.60;;
78563;SDS011;67856;47.754;19.088;2023-03-11T10:35:38;0.85;;;0.47;;
78563;SDS011;67856;47.754;19.088;2023-03-11T10:38:46;2.53;;;0.77;;
78563;SDS011;67856;47.754;19.088;2023-03-11T10:41:53;0.70;;;0.43;;
78563;SDS011;67856;47.754;19.088;2023-03-11T10:44:58;0.80;;;0.50;;
78563;SDS011;67856;47.754;19.088;2023-03-11T10:48:00;1.10;;;0.60;;
78563;SDS011;67856;47.754;19.088;2023-03-11T10:51:09;0.57;;;0.50;;
78563;SDS011;67856;47.754;19.088;2023-03-11T10:54:23;1.15;;;0.70;;
78563;SDS011;67856;47.754;19.088;2023-03-11T10:57:27;4.40;;;1.23;;
78563;SDS011;67856;47.754;19.088;2023-03-11T11:00:34;0.90;;;0.60;;
78563;SDS011;67856;47.754;19.088;2023-03-11T11:03:37;1.30;;;0.53;;
78563;SDS011;67856;47.754;19.088;2023-03-11T11:06:43;0.55;;;0.35;;
78563;SDS011;67856;47.754;19.088;2023-03-11T11:09:45;0.85;;;0.63;;
78563;SDS011;67856;47.754;19.088;2023-03-11T11:19:17;0.93;;;0.60;;
78563;SDS011;67856;47.754;19.088;2023-03-11T11:22:20;0.90;;;0.80;;
78563;SDS011;67856;47.754;19.088;2023-03-11T11:25:34;1.15;;;0.75;;
78563;SDS011;67856;47.754;19.088;2023-03-11T11:28:37;1.30;;;0.65;;
78563;SDS011;67856;47.754;19.088;2023-03-11T11:31:41;1.40;;;0.70;;
78563;SDS011;67856;47.754;19.088;2023-03-11T11:38:00;0.80;;;0.43;;
78563;SDS011;67856;47.754;19.088;2023-03-11T11:41:03;0.60;;;0.50;;
78563;SDS011;67856;47.754;19.088;2023-03-11T11:44:08;0.70;;;0.57;;
78563;SDS011;67856;47.754;19.088;2023-03-11T11:47:23;2.60;;;0.60;;
78563;SDS011;67856;47.754;19.088;2023-03-11T11:50:36;1.33;;;0.60;;
78563;SDS011;67856;47.754;19.088;2023-03-11T11:53:47;0.73;;;0.40;;
78563;SDS011;67856;47.754;19.088;2023-03-11T11:57:08;0.75;;;0.43;;
78563;SDS011;67856;47.754;19.088;2023-03-11T12:10:04;0.85;;;0.63;;
78563;SDS011;67856;47.754;19.088;2023-03-11T12:16:58;0.80;;;0.50;;
78563;SDS011;67856;47.754;19.088;2023-03-11T12:20:08;1.33;;;0.60;;
78563;SDS011;67856;47.754;19.088;2023-03-11T12:26:21;0.70;;;0.50;;
78563;SDS011;67856;47.754;19.088;2023-03-11T12:29:26;0.85;;;0.60;;
78563;SDS011;67856;47.754;19.088;2023-03-11T12:32:35;0.85;;;0.40;;
78563;SDS011;67856;47.754;19.088;2023-03-11T12:35:39;1.00;;;0.80;;
78563;SDS011;67856;47.754;19.088;2023-03-11T12:38:49;0.90;;;0.70;;
78563;SDS011;67856;47.754;19.088;2023-03-11T12:46:02;0.80;;;0.60;;
78563;SDS011;67856;47.754;19.088;2023-03-11T12:58:28;1.00;;;0.65;;
78563;SDS011;67856;47.754;19.088;2023-03-11T13:09:13;1.23;;;0.60;;
78563;SDS011;67856;47.754;19.088;2023-03-11T13:12:39;0.70;;;0.50;;
78563;SDS011;67856;47.754;19.088;2023-03-11T13:15:43;0.70;;;0.40;;
78563;SDS011;67856;47.754;19.088;2023-03-11T13:18:46;1.50;;;0.65;;
78563;SDS011;67856;47.754;19.088;2023-03-11T13:21:50;1.05;;;0.82;;
78563;SDS011;67856;47.754;19.088;2023-03-11T13:24:52;0.80;;;0.50;;
78563;SDS011;67856;47.754;19.088;2023-03-11T13:28:02;0.70;;;0.50;;
78563;SDS011;67856;47.754;19.088;2023-03-11T13:37:50;0.57;;;0.40;;
78563;SDS011;67856;47.754;19.088;2023-03-11T13:41:31;0.97;;;0.60;;
78563;SDS011;67856;47.754;19.088;2023-03-11T13:44:36;0.93;;;0.50;;
78563;SDS011;67856;47.754;19.088;2023-03-11T13:47:42;1.02;;;0.60;;
78563;SDS011;67856;47.754;19.088;2023-03-11T13:50:50;1.02;;;0.63;;
78563;SDS011;67856;47.754;19.088;2023-03-11T13:54:16;1.80;;;0.60;;
78563;SDS011;67856;47.754;19.088;2023-03-11T13:57:33;1.07;;;0.70;;
78563;SDS011;67856;47.754;19.088;2023-03-11T14:00:37;2.23;;;0.80;;
78563;SDS011;67856;47.754;19.088;2023-03-11T14:03:48;0.90;;;0.70;;
78563;SDS011;67856;47.754;19.088;2023-03-11T14:06:51;1.13;;;0.88;;
78563;SDS011;67856;47.754;19.088;2023-03-11T14:13:24;1.13;;;0.90;;
78563;SDS011;67856;47.754;19.088;2023-03-11T14:16:29;0.80;;;0.67;;
78563;SDS011;67856;47.754;19.088;2023-03-11T14:19:36;2.35;;;1.15;;
78563;SDS011;67856;47.754;19.088;2023-03-11T14:22:39;4.75;;;2.00;;
78563;SDS011;67856;47.754;19.088;2023-03-11T14:25:45;2.63;;;1.42;;
78563;SDS011;67856;47.754;19.088;2023-03-11T14:28:48;1.33;;;1.00;;
78563;SDS011;67856;47.754;19.088;2023-03-11T14:31:53;1.20;;;0.83;;
78563;SDS011;67856;47.754;19.088;2023-03-11T14:34:56;0.95;;;0.65;;
78563;SDS011;67856;47.754;19.088;2023-03-11T14:37:59;1.50;;;0.80;;
78563;SDS011;67856;47.754;19.088;2023-03-11T14:41:02;1.42;;;0.60;;
78563;SDS011;67856;47.754;19.088;2023-03-11T14:44:06;0.70;;;0.60;;
78563;SDS011;67856;47.754;19.088;2023-03-11T14:47:17;0.80;;;0.60;;
78563;SDS011;67856;47.754;19.088;2023-03-11T14:50:25;1.10;;;0.85;;
78563;SDS011;67856;47.754;19.088;2023-03-11T14:53:46;1.75;;;0.98;;
78563;SDS011;67856;47.754;19.088;2023-03-11T14:56:54;1.00;;;0.70;;
78563;SDS011;67856;47.754;19.088;2023-03-11T15:00:03;0.93;;;0.70;;
78563;SDS011;67856;47.754;19.088;2023-03-11T15:06:24;1.17;;;0.80;;
78563;SDS011;67856;47.754;19.088;2023-03-11T15:09:28;0.98;;;0.60;;
78563;SDS011;67856;47.754;19.088;2023-03-11T15:12:32;1.20;;;0.82;;
78563;SDS011;67856;47.754;19.088;2023-03-11T15:15:36;1.10;;;0.70;;
78563;SDS011;67856;47.754;19.088;2023-03-11T15:18:38;0.87;;;0.70;;
78563;SDS011;67856;47.754;19.088;2023-03-11T15:21:46;0.90;;;0.63;;
78563;SDS011;67856;47.754;19.088;2023-03-11T15:24:51;1.20;;;0.85;;
78563;SDS011;67856;47.754;19.088;2023-03-11T15:28:12;0.88;;;0.70;;
78563;SDS011;67856;47.754;19.088;2023-03-11T15:31:27;1.17;;;0.70;;
78563;SDS011;67856;47.754;19.088;2023-03-11T15:34:33;0.70;;;0.50;;
78563;SDS011;67856;47.754;19.088;2023-03-11T15:37:36;0.98;;;0.80;;
78563;SDS011;67856;47.754;19.088;2023-03-11T15:40:43;1.17;;;0.82;;
78563;SDS011;67856;47.754;19.088;2023-03-11T15:43:55;2.45;;;0.80;;
78563;SDS011;67856;47.754;19.088;2023-03-11T15:47:02;1.40;;;0.77;;
78563;SDS011;67856;47.754;19.088;2023-03-11T15:50:24;1.20;;;0.90;;
78563;SDS011;67856;47.754;19.088;2023-03-11T15:53:44;0.80;;;0.60;;
78563;SDS011;67856;47.754;19.088;2023-03-11T15:56:46;1.50;;;0.90;;
78563;SDS011;67856;47.754;19.088;2023-03-11T15:59:49;0.85;;;0.70;;
78563;SDS011;67856;47.754;19.088;2023-03-11T16:02:52;0.80;;;0.73;;
78563;SDS011;67856;47.754;19.088;2023-03-11T16:05:55;0.67;;;0.60;;
78563;SDS011;67856;47.754;19.088;2023-03-11T16:08:58;0.82;;;0.60;;
78563;SDS011;67856;47.754;19.088;2023-03-11T16:12:00;0.85;;;0.70;;
78563;SDS011;67856;47.754;19.088;2023-03-11T16:15:04;1.55;;;1.00;;
78563;SDS011;67856;47.754;19.088;2023-03-11T16:18:08;0.87;;;0.60;;
78563;SDS011;67856;47.754;19.088;2023-03-11T16:21:15;1.30;;;1.00;;
78563;SDS011;67856;47.754;19.088;2023-03-11T16:24:20;1.40;;;0.55;;
78563;SDS011;67856;47.754;19.088;2023-03-11T16:27:24;1.05;;;0.70;;
78563;SDS011;67856;47.754;19.088;2023-03-11T16:30:27;1.30;;;0.70;;
78563;SDS011;67856;47.754;19.088;2023-03-11T16:33:30;1.20;;;0.70;;
78563;SDS011;67856;47.754;19.088;2023-03-11T16:36:34;1.03;;;0.60;;
78563;SDS011;67856;47.754;19.088;2023-03-11T16:39:37;1.50;;;0.80;;
78563;SDS011;67856;47.754;19.088;2023-03-11T16:42:39;0.93;;;0.60;;
78563;SDS011;67856;47.754;19.088;2023-03-11T16:45:42;1.80;;;0.80;;
78563;SDS011;67856;47.754;19.088;2023-03-11T16:48:44;1.03;;;0.77;;
78563;SDS011;67856;47.754;19.088;2023-03-11T16:51:47;0.90;;;0.67;;
78563;SDS011;67856;47.754;19.088;2023-03-11T16:54:49;1.10;;;0.70;;
78563;SDS011;67856;47.754;19.088;2023-03-11T16:57:52;0.90;;;0.60;;
78563;SDS011;67856;47.754;19.088;2023-03-11T17:00:55;1.23;;;0.60;;
78563;SDS011;67856;47.754;19.088;2023-03-11T17:03:58;0.77;;;0.60;;
78563;SDS011;67856;47.754;19.088;2023-03-11T17:07:00;0.77;;;0.60;;
78563;SDS011;67856;47.754;19.088;2023-03-11T17:10:03;0.93;;;0.60;;
78563;SDS011;67856;47.754;19.088;2023-03-11T17:13:06;1.15;;;0.60;;
78563;SDS011;67856;47.754;19.088;2023-03-11T17:16:08;1.20;;;0.80;;
78563;SDS011;67856;47.754;19.088;2023-03-11T17:19:11;0.97;;;0.60;;
78563;SDS011;67856;47.754;19.088;2023-03-11T17:22:14;0.43;;;0.40;;
78563;SDS011;67856;47.754;19.088;2023-03-11T17:25:17;0.75;;;0.43;;
78563;SDS011;67856;47.754;19.088;2023-03-11T17:28:19;0.70;;;0.60;;
78563;SDS011;67856;47.754;19.088;2023-03-11T17:31:22;0.80;;;0.60;;
78563;SDS011;67856;47.754;19.088;2023-03-11T17:34:25;0.83;;;0.60;;
78563;SDS011;67856;47.754;19.088;2023-03-11T17:37:27;0.90;;;0.70;;
78563;SDS011;67856;47.754;19.088;2023-03-11T17:40:30;0.70;;;0.52;;
78563;SDS011;67856;47.754;19.088;2023-03-11T17:43:33;0.77;;;0.50;;
78563;SDS011;67856;47.754;19.088;2023-03-11T17:46:36;1.05;;;0.60;;
78563;SDS011;67856;47.754;19.088;2023-03-11T17:49:41;0.80;;;0.60;;
78563;SDS011;67856;47.754;19.088;2023-03-11T17:52:44;0.73;;;0.40;;
78563;SDS011;67856;47.754;19.088;2023-03-11T17:55:47;1.05;;;0.80;;
78563;SDS011;67856;47.754;19.088;2023-03-11T17:58:50;2.85;;;0.63;;
78563;SDS011;67856;47.754;19.088;2023-03-11T18:01:53;0.88;;;0.60;;
78563;SDS011;67856;47.754;19.088;2023-03-11T18:04:55;0.60;;;0.50;;
78563;SDS011;67856;47.754;19.088;2023-03-11T18:07:58;0.70;;;0.57;;
78563;SDS011;67856;47.754;19.088;2023-03-11T18:11:02;1.75;;;0.70;;
78563;SDS011;67856;47.754;19.088;2023-03-11T18:14:06;1.02;;;0.60;;
78563;SDS011;67856;47.754;19.088;2023-03-11T18:17:09;0.80;;;0.50;;
78563;SDS011;67856;47.754;19.088;2023-03-11T18:20:12;0.60;;;0.40;;
78563;SDS011;67856;47.754;19.088;2023-03-11T18:23:15;0.80;;;0.60;;
78563;SDS011;67856;47.754;19.088;2023-03-11T18:26:18;1.40;;;0.70;;
78563;SDS011;67856;47.754;19.088;2023-03-11T18:29:21;0.80;;;0.65;;
78563;SDS011;67856;47.754;19.088;2023-03-11T18:32:25;0.70;;;0.50;;
78563;SDS011;67856;47.754;19.088;2023-03-11T18:35:28;0.80;;;0.60;;
78563;SDS011;67856;47.754;19.088;2023-03-11T18:38:30;0.83;;;0.50;;
78563;SDS011;67856;47.754;19.088;2023-03-11T18:41:33;1.25;;;0.55;;
78563;SDS011;67856;47.754;19.088;2023-03-11T18:44:37;0.95;;;0.65;;
78563;SDS011;67856;47.754;19.088;2023-03-11T18:47:39;0.70;;;0.63;;
78563;SDS011;67856;47.754;19.088;2023-03-11T18:50:42;0.80;;;0.50;;
78563;SDS011;67856;47.754;19.088;2023-03-11T18:53:44;0.90;;;0.73;;
78563;SDS011;67856;47.754;19.088;2023-03-11T18:56:47;0.70;;;0.60;;
78563;SDS011;67856;47.754;19.088;2023-03-11T18:59:50;0.50;;;0.40;;
78563;SDS011;67856;47.754;19.088;2023-03-11T19:02:53;0.63;;;0.60;;
78563;SDS011;67856;47.754;19.088;2023-03-11T19:05:55;0.90;;;0.60;;
78563;SDS011;67856;47.754;19.088;2023-03-11T19:08:58;0.80;;;0.63;;
78563;SDS011;67856;47.754;19.088;2023-03-11T19:12:01;1.00;;;0.60;;
78563;SDS011;67856;47.754;19.088;2023-03-11T19:15:03;0.70;;;0.50;;
78563;SDS011;67856;47.754;19.088;2023-03-11T19:18:07;0.88;;;0.60;;
78563;SDS011;67856;47.754;19.088;2023-03-11T19:21:10;0.97;;;0.67;;
78563;SDS011;67856;47.754;19.088;2023-03-11T19:24:13;1.00;;;0.70;;
78563;SDS011;67856;47.754;19.088;2023-03-11T19:27:16;0.70;;;0.40;;
78563;SDS011;67856;47.754;19.088;2023-03-11T19:30:19;0.85;;;0.50;;
78563;SDS011;67856;47.754;19.088;2023-03-11T19:33:22;1.02;;;0.70;;
78563;SDS011;67856;47.754;19.088;2023-03-11T19:36:25;1.00;;;0.60;;
78563;SDS011;67856;47.754;19.088;2023-03-11T19:39:28;0.70;;;0.60;;
78563;SDS011;67856;47.754;19.088;2023-03-11T19:42:31;0.88;;;0.50;;
78563;SDS011;67856;47.754;19.088;2023-03-11T19:45:34;0.70;;;0.45;;
78563;SDS011;67856;47.754;19.088;2023-03-11T19:48:37;0.95;;;0.60;;
78563;SDS011;67856;47.754;19.088;2023-03-11T19:51:39;1.30;;;0.60;;